createdAt,value
2023-04-26T00:01:54.974Z,100735.84
2023-04-26T00:04:21.697Z,100737.50
2023-04-26T00:06:49.318Z,100730.09
2023-04-26T00:09:16.184Z,100734.63
2023-04-26T00:11:42.579Z,100729.75
2023-04-26T00:14:09.215Z,100733.66
2023-04-26T00:16:35.880Z,100737.06
2023-04-26T00:19:02.384Z,100734.47
2023-04-26T00:21:31.781Z,100735.94
2023-04-26T00:23:58.487Z,100733.06
2023-04-26T00:26:25.097Z,100729.66
2023-04-26T00:28:51.735Z,100736.66
2023-04-26T00:31:18.669Z,100739.84
2023-04-26T00:33:47.709Z,100741.88
2023-04-26T00:36:15.363Z,100740.81
2023-04-26T00:38:41.856Z,100739.16
2023-04-26T00:41:08.348Z,100730.22
2023-04-26T00:43:34.900Z,100726.34
2023-04-26T00:46:04.032Z,100725.94
2023-04-26T00:48:30.665Z,100732.38
2023-04-26T00:50:57.228Z,100722.75
2023-04-26T00:53:23.637Z,100734.16
2023-04-26T00:55:51.476Z,100723.31
2023-04-26T00:58:20.859Z,100732.19
2023-04-26T01:00:47.353Z,100739.78
2023-04-26T01:03:14.064Z,100735.81
2023-04-26T01:05:40.871Z,100732.38
2023-04-26T01:08:07.276Z,100732.44
2023-04-26T01:10:34.975Z,100740.94
2023-04-26T01:13:02.995Z,100729.66
2023-04-26T01:15:30.549Z,100731.97
2023-04-26T01:17:57.623Z,100724.81
2023-04-26T01:20:24.404Z,100736.56
2023-04-26T01:22:50.919Z,100736.75
2023-04-26T01:25:18.374Z,100735.38
2023-04-26T01:27:45.034Z,100735.38
2023-04-26T01:30:12.460Z,100731.66
2023-04-26T01:32:38.816Z,100722.91
2023-04-26T01:35:07.835Z,100724.78
2023-04-26T01:37:36.784Z,100726.31
2023-04-26T01:40:06.523Z,100724.59
2023-04-26T01:42:33.217Z,100728.44
2023-04-26T01:44:59.704Z,100723.72
2023-04-26T01:47:26.468Z,100725.19
2023-04-26T01:49:53.057Z,100729.75
2023-04-26T01:52:19.396Z,100736.63
2023-04-26T01:54:45.796Z,100733.25
2023-04-26T01:57:14.537Z,100732.47
2023-04-26T01:59:40.986Z,100727.34
2023-04-26T02:02:07.486Z,100737.88
2023-04-26T02:04:33.956Z,100733.97
2023-04-26T02:07:00.648Z,100730.22
2023-04-26T02:09:27.166Z,100730.72
2023-04-26T02:11:53.567Z,100737.03
2023-04-26T02:14:20.298Z,100739.41
2023-04-26T02:16:46.671Z,100738.56
2023-04-26T02:19:13.636Z,100742.63
2023-04-26T02:21:58.412Z,100740.28
2023-04-26T02:24:27.698Z,100737.56
2023-04-26T02:26:54.419Z,100739.09
2023-04-26T02:29:29.501Z,100739.00
2023-04-26T02:32:07.554Z,100738.81
2023-04-26T02:34:34.032Z,100735.59
2023-04-26T02:37:00.695Z,100737.34
2023-04-26T02:39:27.286Z,100741.59
2023-04-26T02:41:56.304Z,100745.97
2023-04-26T02:44:22.856Z,100749.19
2023-04-26T02:46:51.679Z,100744.44
2023-04-26T02:49:18.153Z,100737.38
2023-04-26T02:51:44.668Z,100731.69
2023-04-26T02:54:11.652Z,100741.41
2023-04-26T02:56:38.065Z,100741.88
2023-04-26T02:59:04.446Z,100739.38
2023-04-26T03:01:31.039Z,100739.75
2023-04-26T03:03:57.863Z,100733.38
2023-04-26T03:06:24.341Z,100745.06
2023-04-26T03:08:50.976Z,100742.47
2023-04-26T03:11:17.534Z,100742.72
2023-04-26T03:13:43.891Z,100742.72
2023-04-26T03:16:11.085Z,100742.84
2023-04-26T03:18:42.391Z,100737.88
2023-04-26T03:21:08.784Z,100740.22
2023-04-26T03:23:35.309Z,100738.09
2023-04-26T03:26:01.788Z,100736.78
2023-04-26T03:28:28.289Z,100743.63
2023-04-26T03:30:54.902Z,100741.75
2023-04-26T03:33:23.878Z,100746.38
2023-04-26T03:35:51.557Z,100753.44
2023-04-26T03:38:20.350Z,100751.69
2023-04-26T03:40:46.800Z,100749.66
2023-04-26T03:43:13.189Z,100750.03
2023-04-26T03:45:39.617Z,100752.28
2023-04-26T03:48:06.525Z,100742.19
2023-04-26T03:50:33.034Z,100751.78
2023-04-26T03:52:59.477Z,100752.38
2023-04-26T03:55:26.264Z,100749.41
2023-04-26T03:57:54.943Z,100738.63
2023-04-26T04:00:21.941Z,100737.34
2023-04-26T04:02:48.456Z,100742.06
2023-04-26T04:05:14.948Z,100727.41
2023-04-26T04:07:41.918Z,100736.13
2023-04-26T04:10:11.272Z,100725.88
2023-04-26T04:12:37.872Z,100728.56
2023-04-26T04:15:04.745Z,100729.88
2023-04-26T04:17:31.172Z,100732.09
2023-04-26T04:20:00.812Z,100733.53
2023-04-26T04:22:27.202Z,100737.78
2023-04-26T04:24:57.410Z,100743.19
2023-04-26T04:27:28.693Z,100750.06
2023-04-26T04:29:55.251Z,100748.28
2023-04-26T04:32:23.826Z,100743.56
2023-04-26T04:34:51.890Z,100748.75
2023-04-26T04:37:18.305Z,100750.78
2023-04-26T04:39:46.996Z,100760.84
2023-04-26T04:42:13.448Z,100763.81
2023-04-26T04:44:43.035Z,100765.00
2023-04-26T04:47:09.420Z,100761.94
2023-04-26T04:49:37.377Z,100769.38
2023-04-26T04:52:04.601Z,100777.09
2023-04-26T04:54:31.108Z,100773.06
2023-04-26T04:56:57.645Z,100772.25
2023-04-26T04:59:24.486Z,100768.22
2023-04-26T05:01:51.168Z,100780.66
2023-04-26T05:04:18.097Z,100779.13
2023-04-26T05:06:44.642Z,100786.22
2023-04-26T05:09:11.380Z,100788.94
2023-04-26T05:11:37.867Z,100792.38
2023-04-26T05:14:04.287Z,100791.63
2023-04-26T05:16:30.919Z,100795.63
2023-04-26T05:19:02.476Z,100799.19
2023-04-26T05:21:28.916Z,100790.88
2023-04-26T05:23:55.664Z,100797.50
2023-04-26T05:26:22.181Z,100790.63
2023-04-26T05:28:48.569Z,100793.41
2023-04-26T05:31:15.005Z,100807.28
2023-04-26T05:33:43.811Z,100800.75
2023-04-26T05:36:12.598Z,100812.06
2023-04-26T05:38:39.107Z,100801.41
2023-04-26T05:41:05.572Z,100796.25
2023-04-26T05:43:32.031Z,100813.84
2023-04-26T05:46:02.085Z,100808.25
2023-04-26T05:48:29.826Z,100807.31
2023-04-26T05:50:56.310Z,100805.94
2023-04-26T05:53:22.942Z,100801.31
2023-04-26T05:55:51.906Z,100800.06
2023-04-26T05:58:18.319Z,100806.50
2023-04-26T06:00:44.824Z,100808.13
2023-04-26T06:03:11.495Z,100817.25
2023-04-26T06:05:41.441Z,100821.28
2023-04-26T06:08:08.307Z,100816.53
2023-04-26T06:10:36.529Z,100817.75
2023-04-26T06:13:03.373Z,100821.16
2023-04-26T06:15:31.664Z,100820.44
2023-04-26T06:17:58.352Z,100819.72
2023-04-26T06:20:28.210Z,100827.59
2023-04-26T06:22:54.637Z,100826.59
2023-04-26T06:25:21.178Z,100826.97
2023-04-26T06:27:47.904Z,100830.03
2023-04-26T06:30:14.472Z,100830.66
2023-04-26T06:32:41.490Z,100830.56
2023-04-26T06:35:10.948Z,100828.50
2023-04-26T06:37:38.059Z,100830.91
2023-04-26T06:40:05.303Z,100827.06
2023-04-26T06:42:31.816Z,100827.59
2023-04-26T06:44:58.355Z,100824.53
2023-04-26T06:47:28.076Z,100826.25
2023-04-26T06:49:57.186Z,100815.34
2023-04-26T06:52:23.591Z,100807.34
2023-04-26T06:54:57.098Z,100806.72
2023-04-26T06:57:29.566Z,100808.09
2023-04-26T06:59:56.160Z,100810.41
2023-04-26T07:02:24.360Z,100808.34
2023-04-26T07:04:51.646Z,100802.84
2023-04-26T07:07:18.390Z,100802.19
2023-04-26T07:09:47.611Z,100797.59
2023-04-26T07:12:14.334Z,100801.63
2023-04-26T07:14:45.953Z,100792.25
2023-04-26T07:17:12.328Z,100794.38
2023-04-26T07:19:38.756Z,100802.63
2023-04-26T07:22:05.324Z,100795.56
2023-04-26T07:24:32.044Z,100796.72
2023-04-26T07:26:58.416Z,100801.38
2023-04-26T07:29:24.871Z,100804.31
2023-04-26T07:31:51.312Z,100791.66
2023-04-26T07:34:17.838Z,100795.56
2023-04-26T07:36:46.945Z,100785.94
2023-04-26T07:39:16.728Z,100788.72
2023-04-26T07:41:44.109Z,100787.56
2023-04-26T07:44:11.485Z,100791.78
2023-04-26T07:46:41.535Z,100793.41
2023-04-26T07:49:08.042Z,100788.03
2023-04-26T07:51:35.866Z,100796.88
2023-04-26T07:54:02.321Z,100795.63
2023-04-26T07:56:30.889Z,100803.69
2023-04-26T07:58:57.425Z,100800.56
2023-04-26T08:01:23.860Z,100791.63
2023-04-26T08:03:50.969Z,100800.44
2023-04-26T08:06:17.959Z,100794.41
2023-04-26T08:08:49.106Z,100797.16
2023-04-26T08:11:18.267Z,100795.72
2023-04-26T08:13:44.753Z,100793.72
2023-04-26T08:16:11.126Z,100795.00
2023-04-26T08:18:40.346Z,100797.44
2023-04-26T08:21:09.100Z,100790.97
2023-04-26T08:23:36.510Z,100799.06
2023-04-26T08:26:03.353Z,100794.28
2023-04-26T08:28:29.927Z,100797.84
2023-04-26T08:30:56.720Z,100801.09
2023-04-26T08:33:26.132Z,100795.44
2023-04-26T08:35:52.731Z,100789.00
2023-04-26T08:38:19.296Z,100789.88
2023-04-26T08:40:47.363Z,100783.38
2023-04-26T08:43:15.114Z,100784.22
2023-04-26T08:45:44.463Z,100782.94
2023-04-26T08:48:16.979Z,100782.38
2023-04-26T08:50:47.367Z,100782.31
2023-04-26T08:53:17.708Z,100773.66
2023-04-26T08:55:51.107Z,100770.16
2023-04-26T08:58:18.350Z,100769.66
2023-04-26T09:00:48.540Z,100768.81
2023-04-26T09:03:21.010Z,100768.94
2023-04-26T09:05:47.691Z,100762.13
2023-04-26T09:08:17.594Z,100765.28
2023-04-26T09:10:44.368Z,100761.66
2023-04-26T09:13:14.397Z,100763.66
2023-04-26T09:15:41.633Z,100760.34
2023-04-26T09:18:22.719Z,100762.13
2023-04-26T09:21:03.860Z,100759.81
2023-04-26T09:23:30.891Z,100761.28
2023-04-26T09:25:57.337Z,100767.88
2023-04-26T09:28:24.153Z,100761.63
2023-04-26T09:30:50.901Z,100759.41
2023-04-26T09:33:17.499Z,100758.41
2023-04-26T09:35:44.240Z,100759.59
2023-04-26T09:38:13.491Z,100764.81
2023-04-26T09:40:46.135Z,100758.25
2023-04-26T09:43:19.900Z,100759.25
2023-04-26T09:45:57.775Z,100752.19
2023-04-26T09:48:28.776Z,100760.56
2023-04-26T09:50:57.547Z,100770.78
2023-04-26T09:53:34.834Z,100770.00
2023-04-26T09:56:19.081Z,100767.75
2023-04-26T09:59:00.730Z,100762.97
2023-04-26T10:01:33.321Z,100764.06
2023-04-26T10:04:05.177Z,100758.31
2023-04-26T10:06:33.002Z,100757.38
2023-04-26T10:09:01.796Z,100754.13
2023-04-26T10:11:29.015Z,100754.78
2023-04-26T10:13:57.821Z,100756.94
2023-04-26T10:16:24.526Z,100750.50
2023-04-26T10:18:51.691Z,100744.69
2023-04-26T10:21:31.455Z,100743.22
2023-04-26T10:24:00.403Z,100734.44
2023-04-26T10:26:50.325Z,100741.03
2023-04-26T10:29:16.838Z,100741.34
2023-04-26T10:32:04.548Z,100747.91
2023-04-26T10:34:37.106Z,100747.63
2023-04-26T10:37:11.351Z,100745.63
2023-04-26T10:39:39.545Z,100737.16
2023-04-26T10:42:30.406Z,100749.47
2023-04-26T10:44:58.685Z,100745.88
2023-04-26T10:47:37.323Z,100741.25
2023-04-26T10:50:09.497Z,100737.34
2023-04-26T10:52:38.136Z,100736.97
2023-04-26T10:55:12.322Z,100735.19
2023-04-26T10:57:52.592Z,100731.31
2023-04-26T11:00:31.337Z,100725.63
2023-04-26T11:03:03.363Z,100719.91
2023-04-26T11:06:05.853Z,100715.44
2023-04-26T11:08:36.756Z,100702.63
2023-04-26T11:11:03.235Z,100700.97
2023-04-26T11:13:33.841Z,100692.69
2023-04-26T11:16:05.608Z,100695.28
2023-04-26T11:18:33.096Z,100698.06
2023-04-26T11:20:59.777Z,100684.63
2023-04-26T11:23:29.934Z,100692.44
2023-04-26T11:26:03.105Z,100688.47
2023-04-26T11:28:34.574Z,100681.56
2023-04-26T11:31:05.084Z,100676.72
2023-04-26T11:33:34.668Z,100671.50
2023-04-26T11:36:04.016Z,100665.06
2023-04-26T11:38:30.813Z,100666.91
2023-04-26T11:41:00.617Z,100673.13
2023-04-26T11:43:38.329Z,100671.00
2023-04-26T11:46:06.808Z,100667.53
2023-04-26T11:48:35.900Z,100671.84
2023-04-26T11:51:07.547Z,100654.16
2023-04-26T11:53:39.692Z,100654.31
2023-04-26T11:56:23.040Z,100652.25
2023-04-26T11:58:55.312Z,100650.72
2023-04-26T12:01:26.032Z,100654.66
2023-04-26T12:03:57.619Z,100662.41
2023-04-26T12:06:33.841Z,100658.88
2023-04-26T12:09:02.766Z,100651.41
2023-04-26T12:11:29.188Z,100656.50
2023-04-26T12:13:59.461Z,100645.16
2023-04-26T12:16:27.126Z,100658.50
2023-04-26T12:18:59.251Z,100661.13
2023-04-26T12:21:31.138Z,100659.47
2023-04-26T12:23:57.656Z,100646.84
2023-04-26T12:26:42.240Z,100643.19
2023-04-26T12:29:08.844Z,100638.38
2023-04-26T12:31:35.310Z,100646.94
2023-04-26T12:34:01.777Z,100657.34
2023-04-26T12:36:31.479Z,100651.69
2023-04-26T12:38:58.072Z,100646.38
2023-04-26T12:41:24.545Z,100649.69
2023-04-26T12:43:53.340Z,100641.75
2023-04-26T12:46:19.917Z,100646.06
2023-04-26T12:48:46.612Z,100645.00
2023-04-26T12:51:15.716Z,100642.47
2023-04-26T12:53:42.182Z,100649.22
2023-04-26T12:56:08.652Z,100644.81
2023-04-26T12:58:35.097Z,100647.47
2023-04-26T13:01:01.534Z,100649.22
2023-04-26T13:03:29.069Z,100647.22
2023-04-26T13:05:55.990Z,100650.03
2023-04-26T13:08:22.683Z,100642.06
2023-04-26T13:10:49.140Z,100640.91
2023-04-26T13:13:19.214Z,100641.00
2023-04-26T13:15:45.970Z,100646.31
2023-04-26T13:18:12.708Z,100640.97
2023-04-26T13:20:39.300Z,100648.38
2023-04-26T13:23:05.665Z,100642.81
2023-04-26T13:25:37.243Z,100637.84
2023-04-26T13:28:03.770Z,100640.38
2023-04-26T13:30:30.640Z,100637.41
2023-04-26T13:32:59.948Z,100634.03
2023-04-26T13:35:26.822Z,100636.72
2023-04-26T13:37:53.295Z,100628.28
2023-04-26T13:40:22.084Z,100632.25
2023-04-26T13:42:48.625Z,100635.56
2023-04-26T13:45:15.803Z,100631.00
2023-04-26T13:47:43.453Z,100625.31
2023-04-26T13:50:10.417Z,100627.56
2023-04-26T13:52:39.289Z,100619.16
2023-04-26T13:55:06.451Z,100627.38
2023-04-26T13:57:32.898Z,100633.69
2023-04-26T13:59:59.268Z,100626.66
2023-04-26T14:02:26.022Z,100625.94
2023-04-26T14:04:52.930Z,100626.13
2023-04-26T14:07:23.297Z,100631.53
2023-04-26T14:09:50.368Z,100619.09
2023-04-26T14:12:16.900Z,100631.56
2023-04-26T14:14:43.358Z,100627.06
2023-04-26T14:17:12.317Z,100624.75
2023-04-26T14:19:38.749Z,100616.78
2023-04-26T14:22:09.917Z,100612.47
2023-04-26T14:24:37.452Z,100619.22
2023-04-26T14:27:03.994Z,100608.66
2023-04-26T14:29:30.499Z,100609.38
2023-04-26T14:31:56.948Z,100615.34
2023-04-26T14:34:28.268Z,100606.00
2023-04-26T14:36:54.621Z,100611.66
2023-04-26T14:39:24.688Z,100602.41
2023-04-26T14:41:51.821Z,100600.34
2023-04-26T14:44:22.618Z,100601.34
2023-04-26T14:46:49.119Z,100605.94
2023-04-26T14:49:15.631Z,100598.03
2023-04-26T14:51:42.036Z,100602.28
2023-04-26T14:54:08.481Z,100602.69
2023-04-26T14:56:35.754Z,100599.63
2023-04-26T14:59:03.802Z,100603.00
2023-04-26T15:01:31.194Z,100602.31
2023-04-26T15:04:01.296Z,100595.56
2023-04-26T15:06:32.115Z,100598.59
2023-04-26T15:08:58.567Z,100597.00
2023-04-26T15:11:27.468Z,100588.31
2023-04-26T15:13:53.824Z,100586.59
2023-04-26T15:16:20.208Z,100582.03
2023-04-26T15:18:46.725Z,100582.44
2023-04-26T15:21:19.534Z,100571.88
2023-04-26T15:23:46.480Z,100571.81
2023-04-26T15:26:13.148Z,100572.91
2023-04-26T15:28:39.563Z,100577.91
2023-04-26T15:31:09.364Z,100583.81
2023-04-26T15:33:36.432Z,100578.41
2023-04-26T15:36:03.063Z,100572.59
2023-04-26T15:38:29.685Z,100578.41
2023-04-26T15:40:58.573Z,100573.25
2023-04-26T15:43:24.990Z,100573.34
2023-04-26T15:45:51.518Z,100570.41
2023-04-26T15:48:18.234Z,100575.75
2023-04-26T15:50:44.768Z,100570.97
2023-04-26T15:53:11.315Z,100577.00
2023-04-26T15:55:41.466Z,100577.13
2023-04-26T15:58:07.882Z,100579.84
2023-04-26T16:00:37.214Z,100580.66
2023-04-26T16:03:03.866Z,100573.84
2023-04-26T16:05:32.863Z,100576.03
2023-04-26T16:08:03.323Z,100575.81
2023-04-26T16:10:29.769Z,100575.53
2023-04-26T16:12:58.872Z,100571.69
2023-04-26T16:15:26.021Z,100571.31
2023-04-26T16:17:55.709Z,100573.16
2023-04-26T16:20:22.337Z,100574.88
2023-04-26T16:22:49.918Z,100573.91
2023-04-26T16:25:17.338Z,100573.28
2023-04-26T16:27:46.241Z,100571.47
2023-04-26T16:30:13.037Z,100568.63
2023-04-26T16:32:42.021Z,100567.75
2023-04-26T16:35:09.088Z,100562.22
2023-04-26T16:37:35.863Z,100566.38
2023-04-26T16:40:02.618Z,100568.81
2023-04-26T16:42:29.949Z,100573.13
2023-04-26T16:44:56.376Z,100567.44
2023-04-26T16:47:22.893Z,100560.28
2023-04-26T16:49:49.254Z,100564.22
2023-04-26T16:52:16.401Z,100566.81
2023-04-26T16:54:42.903Z,100569.59
2023-04-26T16:57:11.066Z,100572.84
2023-04-26T16:59:37.521Z,100572.53
2023-04-26T17:02:06.694Z,100572.75
2023-04-26T17:04:38.420Z,100577.00
2023-04-26T17:07:05.005Z,100581.22
2023-04-26T17:09:31.719Z,100579.53
2023-04-26T17:11:58.309Z,100578.63
2023-04-26T17:14:27.500Z,100577.13
2023-04-26T17:16:54.035Z,100581.81
2023-04-26T17:19:20.469Z,100578.38
2023-04-26T17:21:49.094Z,100581.66
2023-04-26T17:24:15.944Z,100577.19
2023-04-26T17:26:42.826Z,100580.66
2023-04-26T17:29:09.382Z,100582.34
2023-04-26T17:31:35.812Z,100579.88
2023-04-26T17:34:04.730Z,100579.69
2023-04-26T17:36:31.900Z,100582.34
2023-04-26T17:38:58.406Z,100578.63
2023-04-26T17:41:24.850Z,100581.25
2023-04-26T17:43:51.340Z,100579.34
2023-04-26T17:46:20.225Z,100572.50
2023-04-26T17:48:46.826Z,100586.91
2023-04-26T17:51:13.459Z,100588.09
2023-04-26T17:53:39.934Z,100584.13
2023-04-26T17:56:07.753Z,100587.22
2023-04-26T17:58:34.449Z,100585.38
2023-04-26T18:01:01.105Z,100593.06
2023-04-26T18:03:31.563Z,100589.78
2023-04-26T18:05:58.297Z,100594.03
2023-04-26T18:08:24.730Z,100593.69
2023-04-26T18:10:53.753Z,100593.78
2023-04-26T18:13:21.052Z,100592.97
2023-04-26T18:15:47.828Z,100600.75
2023-04-26T18:18:14.330Z,100608.94
2023-04-26T18:20:40.950Z,100603.00
2023-04-26T18:23:07.341Z,100613.28
2023-04-26T18:25:33.767Z,100608.38
2023-04-26T18:28:02.501Z,100616.75
2023-04-26T18:30:31.175Z,100622.69
2023-04-26T18:32:57.616Z,100626.31
2023-04-26T18:35:24.017Z,100617.13
2023-04-26T18:37:50.676Z,100627.03
2023-04-26T18:40:17.217Z,100623.81
2023-04-26T18:42:45.221Z,100626.19
2023-04-26T18:45:12.317Z,100629.44
2023-04-26T18:47:38.998Z,100621.88
2023-04-26T18:50:06.091Z,100620.69
2023-04-26T18:52:32.698Z,100619.94
2023-04-26T18:55:01.725Z,100633.13
2023-04-26T18:57:28.231Z,100630.78
2023-04-26T18:59:57.197Z,100635.81
2023-04-26T19:02:26.466Z,100626.50
2023-04-26T19:04:55.787Z,100636.72
2023-04-26T19:07:24.578Z,100634.78
2023-04-26T19:09:54.544Z,100643.16
2023-04-26T19:12:21.699Z,100647.69
2023-04-26T19:14:48.430Z,100650.50
2023-04-26T19:17:14.945Z,100652.31
2023-04-26T19:19:41.799Z,100648.38
2023-04-26T19:22:08.216Z,100655.03
2023-04-26T19:24:34.665Z,100649.91
2023-04-26T19:27:01.361Z,100648.38
2023-04-26T19:29:27.832Z,100653.13
2023-04-26T19:31:56.821Z,100656.34
2023-04-26T19:34:23.390Z,100660.09
2023-04-26T19:36:49.798Z,100661.81
2023-04-26T19:39:18.851Z,100665.81
2023-04-26T19:41:48.616Z,100668.28
2023-04-26T19:44:17.222Z,100678.47
2023-04-26T19:46:43.760Z,100671.41
2023-04-26T19:49:12.558Z,100677.19
2023-04-26T19:51:41.527Z,100667.81
2023-04-26T19:54:11.303Z,100670.91
2023-04-26T19:56:37.791Z,100665.13
2023-04-26T19:59:04.601Z,100668.59
2023-04-26T20:01:32.186Z,100664.53
2023-04-26T20:04:01.940Z,100665.38
2023-04-26T20:06:32.965Z,100664.78
2023-04-26T20:08:59.783Z,100659.34
2023-04-26T20:11:26.356Z,100658.25
2023-04-26T20:13:53.063Z,100665.03
2023-04-26T20:16:22.033Z,100664.09
2023-04-26T20:18:48.607Z,100670.22
2023-04-26T20:21:15.148Z,100674.34
2023-04-26T20:23:41.555Z,100675.66
2023-04-26T20:26:08.196Z,100665.16
2023-04-26T20:28:34.569Z,100670.91
2023-04-26T20:31:03.193Z,100664.81
2023-04-26T20:33:29.632Z,100671.44
2023-04-26T20:35:56.047Z,100669.47
2023-04-26T20:38:23.274Z,100675.88
2023-04-26T20:40:52.219Z,100673.09
2023-04-26T20:43:18.568Z,100670.78
2023-04-26T20:45:45.201Z,100674.38
2023-04-26T20:48:14.201Z,100668.66
2023-04-26T20:50:40.687Z,100666.34
2023-04-26T20:53:07.137Z,100666.47
2023-04-26T20:55:33.548Z,100668.44
2023-04-26T20:58:00.178Z,100666.31
2023-04-26T21:00:26.669Z,100672.69
2023-04-26T21:02:56.788Z,100663.66
2023-04-26T21:05:24.228Z,100675.59
2023-04-26T21:07:50.910Z,100685.94
2023-04-26T21:10:17.485Z,100679.53
2023-04-26T21:12:44.002Z,100684.16
2023-04-26T21:15:11.330Z,100676.09
2023-04-26T21:17:41.063Z,100673.59
2023-04-26T21:20:07.731Z,100682.63
2023-04-26T21:22:34.151Z,100680.44
2023-04-26T21:25:00.648Z,100683.25
2023-04-26T21:27:27.104Z,100681.25
2023-04-26T21:29:53.546Z,100687.72
2023-04-26T21:32:22.350Z,100683.41
2023-04-26T21:34:49.020Z,100693.38
2023-04-26T21:37:16.829Z,100695.81
2023-04-26T21:39:43.305Z,100698.59
2023-04-26T21:42:09.695Z,100697.00
2023-04-26T21:44:36.228Z,100701.09
2023-04-26T21:47:02.759Z,100702.81
2023-04-26T21:49:34.738Z,100702.91
2023-04-26T21:52:03.907Z,100712.56
2023-04-26T21:54:36.667Z,100706.44
2023-04-26T21:57:08.056Z,100708.38
2023-04-26T21:59:35.168Z,100712.31
2023-04-26T22:02:04.804Z,100714.88
2023-04-26T22:04:33.323Z,100722.28
2023-04-26T22:07:05.914Z,100719.06
2023-04-26T22:09:34.656Z,100714.34
2023-04-26T22:12:03.766Z,100721.81
2023-04-26T22:14:30.290Z,100713.97
2023-04-26T22:17:00.886Z,100716.00
2023-04-26T22:19:29.980Z,100717.47
2023-04-26T22:21:56.573Z,100720.53
2023-04-26T22:24:23.038Z,100724.44
2023-04-26T22:26:49.486Z,100725.44
2023-04-26T22:29:16.228Z,100722.28
2023-04-26T22:31:43.060Z,100728.66
2023-04-26T22:34:09.505Z,100722.13
2023-04-26T22:36:35.952Z,100726.13
2023-04-26T22:39:02.518Z,100731.78
2023-04-26T22:41:31.358Z,100731.25
2023-04-26T22:44:00.021Z,100729.34
2023-04-26T22:46:26.535Z,100737.91
2023-04-26T22:48:55.618Z,100735.00
2023-04-26T22:51:22.054Z,100743.13
2023-04-26T22:53:48.640Z,100736.63
2023-04-26T22:56:17.700Z,100743.56
2023-04-26T22:58:44.231Z,100748.13
2023-04-26T23:01:10.901Z,100747.59
2023-04-26T23:03:37.506Z,100747.63
2023-04-26T23:06:05.132Z,100739.91
2023-04-26T23:08:31.669Z,100743.22
2023-04-26T23:10:58.052Z,100746.91
2023-04-26T23:13:25.503Z,100747.34
2023-04-26T23:15:52.463Z,100753.56
2023-04-26T23:18:19.630Z,100749.53
2023-04-26T23:20:46.381Z,100748.69
2023-04-26T23:23:12.996Z,100752.56
2023-04-26T23:25:42.127Z,100761.25
2023-04-26T23:28:09.061Z,100762.22
2023-04-26T23:30:38.575Z,100766.34
2023-04-26T23:33:05.272Z,100768.94
2023-04-26T23:35:31.761Z,100764.09
2023-04-26T23:37:58.406Z,100757.38
2023-04-26T23:40:25.107Z,100757.00
2023-04-26T23:42:51.449Z,100752.44
2023-04-26T23:45:19.282Z,100748.56
2023-04-26T23:47:45.831Z,100750.47
2023-04-26T23:50:12.659Z,100749.25
2023-04-26T23:52:40.276Z,100745.66
2023-04-26T23:55:08.156Z,100749.25
2023-04-26T23:57:34.700Z,100746.03
